METAR Data
IDs: Format: Raw Decoded Include TAF

Data at: 1850 UTC 23 Apr 2019

KATS 231835Z AUTO 02010G17KT 10SM BKN022 OVC037 16/12 A3009 RMK AO2
KATS 231815Z AUTO 36011KT 10SM SCT020 BKN025 OVC034 16/12 A3010 RMK AO2
KATS 231755Z AUTO 01011KT 10SM BKN020 OVC031 15/12 A3010 RMK AO2
KATS 231735Z AUTO 01010G15KT 10SM OVC020 15/12 A3011 RMK AO2
KATS 231715Z AUTO 35009KT 10SM OVC018 14/12 A3012 RMK AO2
KATS 231655Z AUTO 34008KT 10SM OVC017 14/12 A3012 RMK AO2
KATS 231635Z AUTO 36010KT 10SM OVC017 14/12 A3012 RMK AO2
KATS 231615Z AUTO 35009G15KT 10SM OVC016 13/12 A3012 RMK AO2
KATS 231555Z AUTO 02011KT 10SM OVC017 13/12 A3012 RMK AO2
KATS 231535Z AUTO 02011KT 10SM OVC017 13/12 A3012 RMK AO2
KATS 231515Z AUTO 02010KT 10SM OVC017 13/12 A3011 RMK AO2
KATS 231455Z AUTO 36008G13KT 10SM OVC017 13/11 A3011 RMK AO2
KATS 231435Z AUTO 36011KT 10SM OVC017 13/11 A3010 RMK AO2
KATS 231415Z AUTO 34010G15KT 10SM OVC017 12/11 A3011 RMK AO2
KATS 231355Z AUTO 34012KT 10SM OVC018 12/12 A3010 RMK AO2
KATS 231335Z AUTO 33008KT 10SM OVC020 12/12 A3011 RMK AO2
KATS 231315Z AUTO 32010KT 10SM OVC020 11/11 A3010 RMK AO2
KATS 231255Z AUTO 34010KT 10SM OVC018 11/11 A3009 RMK AO2
KATS 231235Z AUTO 35009G14KT 10SM OVC018 12/12 A3009 RMK AO2
KATS 231215Z AUTO 34010KT 10SM OVC018 12/12 A3009 RMK AO2
KATS 231155Z AUTO 01016KT 10SM OVC017 12/12 A3005 RMK AO2
KATS 231135Z AUTO 36013G20KT 10SM OVC018 12/12 A3007 RMK AO2
KATS 231115Z AUTO 36016G24KT 10SM OVC017 12/12 A3005 RMK AO2
KATS 231055Z AUTO 35017KT 10SM OVC014 12/12 A3005 RMK AO2 P0001
KATS 231035Z AUTO 34013G19KT 10SM BKN014 BKN030 BKN120 12/12 A3007 RMK AO2
KATS 231015Z AUTO 34018KT 10SM SCT011 BKN029 BKN120 11/11 A3005 RMK AO2 LTG DSNT SE
KATS 230955Z AUTO 34015KT 10SM SCT011 BKN023 BKN030 12/12 A3004 RMK AO2
KATS 230935Z AUTO 34013KT 10SM VCTS FEW011 BKN022 OVC120 12/12 A3005 RMK AO2 LTG DSNT E AND SE
KATS 230915Z AUTO 33012KT 10SM SCT010 BKN021 BKN085 12/12 A3006 RMK AO2 LTG DSNT E AND SE
KATS 230855Z AUTO 34012KT 10SM BKN011 BKN085 12/12 A3005 RMK AO2
KATS 230835Z AUTO 31014KT 10SM BKN009 OVC012 12/12 A3007 RMK AO2
KATS 230815Z AUTO 34011KT 10SM OVC006 12/12 A3006 RMK AO2
KATS 230755Z AUTO 35009G15KT 10SM VCTS BKN005 BKN020 BKN043 12/12 A3006 RMK AO2 LTG DSNT E AND SE AND NW P0002
KATS 230735Z AUTO 02015KT 8SM -DZ FEW007 SCT021 BKN037 12/12 A3004 RMK AO2
KATS 230715Z AUTO 36010KT 6SM RA FEW023 SCT040 OVC050 12/12 A3008 RMK AO2 LTG DSNT E
KATS 230655Z AUTO 32011KT 10SM FEW024 SCT044 BKN080 12/12 A3010 RMK AO2 LTG DSNT SW AND W P0001
KATS 230635Z AUTO 35011KT 10SM -DZ BKN023 OVC100 12/12 A3008 RMK AO2 LTG DSNT E AND W
KATS 230615Z AUTO 02011KT 10SM -RA FEW002 BKN028 BKN042 12/12 A3006 RMK AO2
KATS 230555Z AUTO 36012G17KT 10SM OVC029 12/12 A3007 RMK AO2 LTG DSNT N AND E
KATS 230535Z AUTO 35014KT 10SM VCTS DZ OVC029 12/12 A3008 RMK AO2 LTG DSNT E AND SE AND W
KATS 230515Z AUTO 35016KT 10SM FEW018 SCT023 BKN033 12/12 A3007 RMK AO2 LTG DSNT E AND SE
KATS 230455Z AUTO 35015G21KT 10SM VCTS BKN016 BKN022 BKN032 12/12 A3008 RMK AO2 LTG DSNT E AND SE P0002
KATS 230435Z AUTO 34017G23KT 10SM VCTS BKN013 BKN023 BKN042 12/12 A3008 RMK AO2 LTG DSNT NE-SE
KATS 230415Z AUTO 34012KT 8SM VCTS DZ FEW003 BKN016 OVC120 14/14 A3008 RMK AO2 LTG DSNT N-SE
KATS 230355Z AUTO 34003KT 2SM -TSRA SCT003 BKN017 OVC029 14/14 A3008 RMK AO2 LTG DSNT ALQDS P0015
KATS 230335Z AUTO 02003G10KT 6SM -TSRA BKN030 OVC042 15/14 A3007 RMK AO2 LTG DSNT ALQDS
KATS 230315Z AUTO 03008G13KT 5SM VCTS RA FEW020 BKN036 OVC055 16/12 A3005 RMK AO2 LTG DSNT ALQDS
KATS 230255Z AUTO 04012KT 10SM TS FEW036 BKN055 18/10 A3003 RMK AO2 LTG DSNT S-NW
KATS 230235Z AUTO 06009G17KT 10SM FEW055 18/10 A3002 RMK AO2 LTG DSNT S-NW
KATS 230215Z AUTO 07014KT 10SM CLR 19/10 A3000 RMK AO2 LTG DSNT SW AND W
KATS 230155Z AUTO 05013KT 10SM CLR 19/10 A2999 RMK AO2 LTG DSNT SW
KATS 230135Z AUTO 05012KT 10SM CLR 20/10 A2998 RMK AO2 LTG DSNT S-NW
KATS 230115Z AUTO 08008G16KT 7SM VCTS CLR 20/10 A2998 RMK AO2 LTG DSNT W AND NW
KATS 230055Z AUTO 07009KT 10SM FEW048 FEW070 SCT080 21/09 A2998 RMK AO2
KATS 230035Z AUTO 08006KT 10SM BKN048 BKN055 OVC070 21/10 A2998 RMK AO2 LTG DSNT E AND NW
KATS 230015Z AUTO 07008G14KT 040V100 10SM BKN049 BKN055 21/10 A2999 RMK AO2
KATS 222355Z AUTO 06009G16KT 10SM FEW050 22/09 A2999 RMK AO2
KATS 222335Z AUTO 07009KT 9SM CLR 22/08 A2998 RMK AO2
KATS 222315Z AUTO 07010KT 10SM CLR 22/08 A2998 RMK AO2
KATS 222255Z AUTO 08010G18KT 10SM CLR 22/08 A2997 RMK AO2
KATS 222235Z AUTO 07013KT 10SM CLR 22/09 A2997 RMK AO2
KATS 222215Z AUTO 03011KT 10SM FEW120 22/09 A2998 RMK AO2
KATS 222155Z AUTO 01008KT 10SM SCT120 21/09 A2999 RMK AO2
KATS 222135Z AUTO 02007G14KT 10SM CLR 21/08 A3001 RMK AO2
KATS 222115Z AUTO 36005KT 10SM CLR 20/08 A3002 RMK AO2
KATS 222055Z AUTO 02005KT 10SM CLR 20/08 A3003 RMK AO2
KATS 222035Z AUTO 03007G14KT 10SM CLR 19/08 A3004 RMK AO2
KATS 222015Z AUTO 04008G13KT 10SM CLR 19/08 A3005 RMK AO2
KATS 221955Z AUTO 34007G13KT 10SM CLR 19/08 A3006 RMK AO2
KATS 221935Z AUTO 01006G12KT 10SM CLR 18/08 A3007 RMK AO2
KATS 221915Z AUTO 02008KT 10SM CLR 18/08 A3007 RMK AO2
KATS 221855Z AUTO 01012KT 10SM CLR 18/08 A3006 RMK AO2
KATS 221835Z AUTO 02012G18KT 10SM CLR 18/08 A3007 RMK AO2
KATS 221815Z AUTO 36017G25KT 10SM CLR 18/07 A3005 RMK AO2
KATS 221755Z AUTO 36015KT 10SM CLR 17/07 A3007 RMK AO2
KATS 221735Z AUTO 01019KT 10SM CLR 17/07 A3006 RMK AO2
KATS 221715Z AUTO 36019KT 10SM CLR 17/06 A3008 RMK AO2
KATS 221655Z AUTO 36017KT 10SM CLR 17/06 A3008 RMK AO2
KATS 221635Z AUTO 36018G23KT 10SM CLR 17/06 A3006 RMK AO2
KATS 221615Z AUTO 36018KT 10SM CLR 16/06 A3007 RMK AO2
KATS 221555Z AUTO 36019KT 10SM CLR 16/06 A3005 RMK AO2
KATS 221535Z AUTO 36019G24KT 10SM CLR 16/06 A3004 RMK AO2
KATS 221515Z AUTO 35021G27KT 10SM CLR 16/05 A3003 RMK AO2
KATS 221455Z AUTO 35019KT 10SM CLR 15/03 A3002 RMK AO2
KATS 221435Z AUTO 33018G25KT 10SM CLR 15/00 A3001 RMK AO2
KATS 221415Z AUTO 34018KT 10SM CLR 16/M03 A3001 RMK AO2
KATS 221355Z AUTO 34016KT 10SM CLR 16/M03 A2999 RMK AO2
KATS 221335Z AUTO 34011KT 10SM CLR 16/M00 A2998 RMK AO2
KATS 221315Z AUTO 33009KT 10SM CLR 15/M02 A2997 RMK AO2
KATS 221255Z AUTO 33007KT 10SM CLR 16/M02 A2996 RMK AO2
KATS 221235Z AUTO 27009KT 10SM CLR 17/M02 A2994 RMK AO2
KATS 221215Z AUTO 31007KT 10SM CLR 16/00 A2994 RMK AO2
KATS 221155Z AUTO 30003KT 10SM CLR 16/02 A2993 RMK AO2
KATS 221135Z AUTO 00000KT 10SM CLR 17/03 A2992 RMK AO2
KATS 221115Z AUTO 00000KT 10SM CLR 17/00 A2992 RMK AO2
KATS 221055Z AUTO 00000KT 10SM CLR 18/00 A2991 RMK AO2
KATS 221035Z AUTO VRB06KT 10SM CLR 20/M02 A2991 RMK AO2
KATS 221015Z AUTO 15009KT 10SM CLR 19/M02 A2992 RMK AO2
KATS 220955Z AUTO VRB06G12KT 10SM CLR 19/M03 A2991 RMK AO2
KATS 220935Z AUTO 04005KT 10SM CLR 17/M03 A2991 RMK AO2
KATS 220915Z AUTO 00000G12KT 10SM CLR 19/M03 A2990 RMK AO2
KATS 220855Z AUTO 26014KT 10SM CLR 19/M03 A2989 RMK AO2
KATS 220835Z AUTO 24012KT 10SM CLR 18/M03 A2990 RMK AO2
KATS 220815Z AUTO 25011KT 10SM CLR 19/M03 A2989 RMK AO2
KATS 220755Z AUTO 29007KT 10SM CLR 18/M03 A2990 RMK AO2
KATS 220735Z AUTO 25009KT 10SM CLR 19/M03 A2990 RMK AO2
KATS 220715Z AUTO 24009KT 10SM CLR 17/M04 A2990 RMK AO2
KATS 220655Z AUTO 26008KT 10SM CLR 18/M04 A2991 RMK AO2